createdAt,value
2023-04-30T05:02:48.538Z,5.95
2023-04-30T05:05:15.692Z,5.78
2023-04-30T05:07:43.114Z,5.55
2023-04-30T05:10:09.868Z,5.70
2023-04-30T05:12:37.015Z,5.78
2023-04-30T05:15:04.575Z,5.43
2023-04-30T05:17:31.597Z,5.65
2023-04-30T05:19:58.406Z,5.63
2023-04-30T05:22:25.650Z,5.30
2023-04-30T05:24:53.006Z,5.88
2023-04-30T05:27:19.932Z,6.00
2023-04-30T05:29:46.496Z,5.40
2023-04-30T05:32:13.730Z,5.82
2023-04-30T05:34:40.340Z,5.70
2023-04-30T05:37:07.531Z,5.47
2023-04-30T05:39:34.112Z,5.80
2023-04-30T05:42:02.760Z,5.68
2023-04-30T05:44:30.397Z,6.35
2023-04-30T05:46:57.658Z,5.90
2023-04-30T05:49:24.286Z,5.47
2023-04-30T05:51:51.532Z,6.00
2023-04-30T05:54:18.151Z,5.53
2023-04-30T05:56:45.400Z,5.68
2023-04-30T05:59:11.988Z,5.88
2023-04-30T06:01:39.234Z,5.53
2023-04-30T06:04:05.869Z,5.15
2023-04-30T06:06:33.265Z,4.70
2023-04-30T06:08:59.871Z,4.40
2023-04-30T06:11:27.528Z,5.20
2023-04-30T06:13:54.275Z,5.10
2023-04-30T06:16:21.451Z,4.75
2023-04-30T06:18:48.492Z,4.80
2023-04-30T06:21:15.223Z,5.05
2023-04-30T06:23:42.150Z,4.85
2023-04-30T06:26:08.740Z,5.40
2023-04-30T06:28:35.626Z,5.25
2023-04-30T06:31:02.283Z,4.60
2023-04-30T06:33:29.486Z,3.47
2023-04-30T06:35:56.043Z,3.45
2023-04-30T06:38:23.251Z,3.72
2023-04-30T06:40:50.341Z,3.58
2023-04-30T06:43:17.640Z,2.85
2023-04-30T06:45:44.371Z,3.00
2023-04-30T06:48:11.649Z,3.00
2023-04-30T06:50:44.650Z,2.47
2023-04-30T06:53:13.005Z,2.90
2023-04-30T06:55:40.954Z,2.88
2023-04-30T06:58:08.397Z,2.90
2023-04-30T07:00:35.285Z,3.17
2023-04-30T07:03:04.044Z,3.00
2023-04-30T07:05:31.399Z,2.83
2023-04-30T07:07:59.033Z,3.35
2023-04-30T07:10:26.237Z,3.20
2023-04-30T07:12:53.103Z,2.55
2023-04-30T07:15:19.974Z,2.70
2023-04-30T07:17:47.294Z,3.47
2023-04-30T07:20:17.281Z,3.47
2023-04-30T07:22:46.307Z,3.03
2023-04-30T07:25:13.946Z,2.83
2023-04-30T07:27:41.200Z,2.90
2023-04-30T07:30:10.592Z,2.40
2023-04-30T07:32:38.475Z,2.85
2023-04-30T07:35:06.161Z,2.80
2023-04-30T07:37:35.478Z,2.63
2023-04-30T07:40:03.504Z,2.53
2023-04-30T07:42:30.784Z,3.45
2023-04-30T07:44:57.456Z,3.00
2023-04-30T07:47:25.698Z,2.35
2023-04-30T07:49:52.759Z,3.40
2023-04-30T07:52:19.827Z,2.58
2023-04-30T07:54:46.402Z,2.60
2023-04-30T07:57:13.414Z,2.85
2023-04-30T07:59:40.151Z,3.60
2023-04-30T08:02:08.811Z,2.70
2023-04-30T08:04:35.761Z,2.83
2023-04-30T08:07:02.972Z,2.97
2023-04-30T08:09:29.506Z,2.72
2023-04-30T08:11:56.722Z,3.13
2023-04-30T08:14:23.284Z,2.25
2023-04-30T08:16:50.601Z,2.28
2023-04-30T08:19:17.196Z,3.03
2023-04-30T08:21:44.473Z,2.85
2023-04-30T08:24:11.045Z,2.72
2023-04-30T08:26:37.999Z,2.50
2023-04-30T08:29:05.269Z,2.88
2023-04-30T08:31:32.065Z,2.60
2023-04-30T08:33:59.326Z,2.45
2023-04-30T08:36:27.006Z,3.00
2023-04-30T08:38:53.744Z,2.38
2023-04-30T08:41:25.532Z,2.08
2023-04-30T08:44:00.168Z,2.92
2023-04-30T08:46:29.084Z,2.40
2023-04-30T08:48:56.144Z,2.47
2023-04-30T08:51:24.097Z,2.20
2023-04-30T08:53:51.712Z,2.20
2023-04-30T08:56:18.271Z,2.80
2023-04-30T08:58:45.506Z,2.40
2023-04-30T09:01:12.483Z,3.03
2023-04-30T09:03:39.327Z,2.75
2023-04-30T09:06:06.621Z,2.60
2023-04-30T09:09:09.080Z,2.42
2023-04-30T09:11:36.033Z,4.05
2023-04-30T09:14:03.335Z,3.53
2023-04-30T09:16:45.322Z,4.20
2023-04-30T09:19:25.714Z,2.60
2023-04-30T09:21:53.466Z,2.35
2023-04-30T09:24:20.429Z,3.10
2023-04-30T09:26:47.429Z,3.00
2023-04-30T09:29:14.354Z,3.17
2023-04-30T09:31:47.375Z,2.65
2023-04-30T09:34:15.085Z,2.92
2023-04-30T09:36:55.436Z,2.13
2023-04-30T09:39:22.427Z,2.78
2023-04-30T09:41:51.663Z,2.35
2023-04-30T09:44:32.054Z,2.70
2023-04-30T09:46:59.662Z,3.03
2023-04-30T09:49:27.228Z,3.25
2023-04-30T09:51:59.938Z,2.30
2023-04-30T09:54:30.799Z,2.28
2023-04-30T09:57:00.208Z,2.08
2023-04-30T09:59:39.429Z,2.28
2023-04-30T10:04:39.150Z,2.45
2023-04-30T10:07:15.406Z,2.67
2023-04-30T10:09:57.770Z,3.00
2023-04-30T10:12:34.760Z,2.20
2023-04-30T10:15:11.275Z,3.63
2023-04-30T10:17:42.818Z,2.22
2023-04-30T10:20:11.180Z,2.70
2023-04-30T10:22:38.563Z,2.37
2023-04-30T10:25:06.041Z,1.77
2023-04-30T10:27:34.818Z,2.05
2023-04-30T10:30:02.463Z,3.00
2023-04-30T10:32:42.658Z,2.22
2023-04-30T10:35:24.317Z,2.13
2023-04-30T10:37:57.739Z,1.45
2023-04-30T10:40:27.033Z,1.70
2023-04-30T10:45:48.717Z,1.95
2023-04-30T10:48:24.284Z,1.77
2023-04-30T10:50:59.328Z,1.45
2023-04-30T10:53:30.533Z,1.88
2023-04-30T10:56:06.661Z,2.03
2023-04-30T10:58:36.214Z,1.80
2023-04-30T11:01:10.659Z,2.28
2023-04-30T11:03:40.557Z,1.90
2023-04-30T11:06:14.620Z,2.10
2023-04-30T11:08:46.182Z,1.75
2023-04-30T11:11:18.252Z,2.00
2023-04-30T11:13:46.832Z,2.40
2023-04-30T11:16:45.481Z,2.25
2023-04-30T11:19:14.519Z,1.88
2023-04-30T11:21:42.561Z,2.03
2023-04-30T11:24:09.828Z,1.70
2023-04-30T11:27:08.856Z,1.73
2023-04-30T11:29:36.464Z,1.70
2023-04-30T11:32:05.300Z,2.30
2023-04-30T11:34:34.673Z,2.00
2023-04-30T11:37:03.327Z,1.90
2023-04-30T11:39:35.631Z,2.17
2023-04-30T11:42:03.326Z,2.03
2023-04-30T11:44:30.812Z,1.67
2023-04-30T11:46:57.959Z,2.00
2023-04-30T11:49:25.503Z,1.95
2023-04-30T11:51:53.160Z,1.70
2023-04-30T11:54:20.668Z,1.80
2023-04-30T11:56:51.116Z,1.30
2023-04-30T11:59:20.195Z,1.60
2023-04-30T12:01:46.847Z,1.30
2023-04-30T12:04:14.237Z,1.83
2023-04-30T12:06:41.448Z,1.80
2023-04-30T12:09:13.602Z,2.00
2023-04-30T12:11:40.781Z,2.05
2023-04-30T12:14:11.284Z,2.20
2023-04-30T12:16:51.331Z,2.20
2023-04-30T12:19:20.096Z,1.90
2023-04-30T12:21:48.593Z,2.22
2023-04-30T12:24:17.899Z,1.55
2023-04-30T12:26:45.578Z,1.73
2023-04-30T12:29:17.837Z,1.65
2023-04-30T12:31:46.015Z,2.00
2023-04-30T12:34:14.763Z,2.13
2023-04-30T12:36:43.436Z,1.83
2023-04-30T12:39:16.317Z,1.67
2023-04-30T12:41:45.935Z,2.10
2023-04-30T12:44:27.985Z,1.95
2023-04-30T12:47:00.903Z,1.98
2023-04-30T12:49:34.674Z,1.70
2023-04-30T12:52:12.635Z,1.92
2023-04-30T12:54:40.447Z,2.45
2023-04-30T12:57:09.158Z,2.42
2023-04-30T12:59:56.636Z,2.17
2023-04-30T13:02:25.757Z,2.55
2023-04-30T13:04:53.308Z,2.08
2023-04-30T13:07:21.120Z,2.55
2023-04-30T13:09:48.403Z,2.35
2023-04-30T13:12:15.067Z,1.83
2023-04-30T13:14:42.623Z,1.92
2023-04-30T13:17:11.057Z,2.10
2023-04-30T13:19:38.311Z,2.17
2023-04-30T13:22:05.010Z,1.70
2023-04-30T13:24:34.425Z,1.67
2023-04-30T13:27:02.666Z,1.83
2023-04-30T13:29:30.008Z,1.60
2023-04-30T13:31:57.315Z,1.85
2023-04-30T13:34:25.307Z,1.92
2023-04-30T13:36:53.411Z,2.30
2023-04-30T13:39:22.322Z,1.88
2023-04-30T13:41:49.308Z,1.70
2023-04-30T13:44:17.470Z,1.80
2023-04-30T13:46:44.233Z,2.28
2023-04-30T13:49:11.854Z,1.58
2023-04-30T13:51:39.363Z,1.80
2023-04-30T13:54:06.883Z,1.40
2023-04-30T13:56:34.081Z,0.90
2023-04-30T13:59:01.597Z,1.48
2023-04-30T14:01:28.888Z,1.45
2023-04-30T14:03:56.442Z,1.42
2023-04-30T14:06:23.707Z,1.27
2023-04-30T14:08:51.185Z,1.20
2023-04-30T14:11:17.834Z,1.38
2023-04-30T14:13:45.167Z,0.95
2023-04-30T14:16:12.142Z,1.50
2023-04-30T14:18:42.354Z,1.35
2023-04-30T14:21:09.184Z,1.13
2023-04-30T14:23:38.960Z,0.90
2023-04-30T14:26:06.108Z,0.80
2023-04-30T14:28:33.790Z,1.20
2023-04-30T14:31:00.814Z,1.60
2023-04-30T14:33:28.367Z,1.10
2023-04-30T14:35:55.204Z,1.35
2023-04-30T14:38:22.575Z,1.38
2023-04-30T14:40:49.226Z,1.85
2023-04-30T14:43:16.694Z,1.38
2023-04-30T14:45:45.337Z,1.17
2023-04-30T14:48:13.219Z,1.27
2023-04-30T14:50:41.084Z,1.80
2023-04-30T14:53:09.754Z,1.58
2023-04-30T14:55:36.839Z,1.23
2023-04-30T14:58:04.721Z,1.60
2023-04-30T15:00:33.330Z,1.50
2023-04-30T15:03:01.786Z,1.60
2023-04-30T15:05:29.554Z,1.00
2023-04-30T15:07:56.736Z,1.80
2023-04-30T15:10:23.492Z,1.45
2023-04-30T15:12:50.879Z,1.20
2023-04-30T15:15:18.893Z,1.40
2023-04-30T15:17:46.645Z,1.05
2023-04-30T15:20:13.601Z,1.25
2023-04-30T15:22:40.981Z,1.75
2023-04-30T15:25:08.019Z,1.60
2023-04-30T15:27:37.101Z,1.55
2023-04-30T15:30:12.398Z,2.85
2023-04-30T15:32:42.178Z,2.40
2023-04-30T15:35:09.634Z,1.65
2023-04-30T15:37:39.071Z,1.90
2023-04-30T15:40:18.322Z,1.65
2023-04-30T15:43:10.649Z,2.10
2023-04-30T15:45:37.620Z,2.50
2023-04-30T15:48:17.327Z,1.80
2023-04-30T15:50:44.253Z,2.17
2023-04-30T15:53:11.395Z,1.65
2023-04-30T15:55:40.617Z,2.30
2023-04-30T15:58:08.295Z,2.65
2023-04-30T16:00:35.163Z,2.13
2023-04-30T16:03:06.526Z,2.88
2023-04-30T16:11:03.798Z,1.92
2023-04-30T16:13:31.227Z,2.25
2023-04-30T16:16:00.018Z,2.08
2023-04-30T16:18:34.270Z,1.98
2023-04-30T16:21:01.703Z,2.00
2023-04-30T16:23:29.742Z,2.20
2023-04-30T16:25:56.588Z,2.05
2023-04-30T16:28:24.547Z,2.08
2023-04-30T16:33:39.076Z,2.13
2023-04-30T16:36:06.578Z,1.98
2023-04-30T16:38:33.299Z,2.17
2023-04-30T16:41:01.328Z,1.42
2023-04-30T16:43:28.955Z,2.50
2023-04-30T16:45:56.796Z,1.60
2023-04-30T16:48:24.736Z,2.17
2023-04-30T16:50:51.679Z,2.05
2023-04-30T16:56:08.858Z,1.50
2023-04-30T17:01:17.948Z,1.90
2023-04-30T17:03:48.020Z,2.10
2023-04-30T17:06:15.429Z,1.98
2023-04-30T17:11:31.952Z,2.08
2023-04-30T17:13:58.499Z,2.25
2023-04-30T17:16:25.789Z,2.45
2023-04-30T17:18:52.416Z,1.33
2023-04-30T17:21:19.621Z,2.35
2023-04-30T17:23:46.135Z,2.03
2023-04-30T17:26:12.998Z,2.08
2023-04-30T17:28:39.719Z,2.20
2023-04-30T17:31:07.842Z,2.05
2023-04-30T17:33:34.423Z,2.00
2023-04-30T17:36:01.663Z,2.10
2023-04-30T17:38:28.230Z,1.88
2023-04-30T17:40:56.941Z,1.65
2023-04-30T17:43:24.163Z,2.03
2023-04-30T17:45:53.944Z,2.10
2023-04-30T17:48:20.596Z,2.00
2023-04-30T17:50:48.046Z,1.98
2023-04-30T17:53:14.684Z,2.05
2023-04-30T17:55:41.982Z,1.90
2023-04-30T17:58:11.612Z,2.00
2023-04-30T18:00:39.673Z,1.70
2023-04-30T18:03:06.628Z,1.70
2023-04-30T18:05:35.587Z,2.30
2023-04-30T18:08:02.778Z,2.33
2023-04-30T18:10:29.681Z,2.60
2023-04-30T18:12:58.588Z,3.90
2023-04-30T18:15:26.087Z,3.40
2023-04-30T18:17:53.104Z,2.42
2023-04-30T18:20:21.730Z,2.08
2023-04-30T18:22:48.905Z,2.20
2023-04-30T18:25:17.086Z,1.90
2023-04-30T18:27:44.870Z,2.72
2023-04-30T18:30:12.958Z,2.00
2023-04-30T18:32:41.550Z,2.03
2023-04-30T18:35:09.289Z,1.88
2023-04-30T18:37:35.906Z,1.88
2023-04-30T18:40:03.928Z,1.48
2023-04-30T18:42:31.227Z,2.30
2023-04-30T18:44:57.814Z,2.40
2023-04-30T18:47:25.023Z,2.90
2023-04-30T18:49:51.722Z,4.10
2023-04-30T18:52:19.050Z,2.97
2023-04-30T18:54:46.471Z,3.10
2023-04-30T18:57:18.652Z,2.90
2023-04-30T18:59:45.427Z,3.70
2023-04-30T19:02:13.003Z,2.88
2023-04-30T19:04:39.615Z,2.00
2023-04-30T19:07:06.862Z,2.20
2023-04-30T19:09:36.865Z,2.38
2023-04-30T19:12:04.290Z,2.05
2023-04-30T19:14:30.969Z,1.83
2023-04-30T19:16:58.321Z,2.20
2023-04-30T19:19:25.109Z,2.83
2023-04-30T19:21:53.768Z,2.53
2023-04-30T19:24:21.187Z,2.50
2023-04-30T19:26:49.806Z,2.28
2023-04-30T19:29:16.534Z,2.58
2023-04-30T19:31:43.818Z,3.22
2023-04-30T19:34:10.966Z,3.55
2023-04-30T19:36:38.168Z,1.98
2023-04-30T19:39:07.229Z,2.38
2023-04-30T19:41:34.363Z,2.67
2023-04-30T19:44:01.015Z,2.78
2023-04-30T19:46:27.999Z,2.67
2023-04-30T19:48:54.815Z,2.50
2023-04-30T19:52:01.834Z,3.40
2023-04-30T19:54:53.246Z,2.72
2023-04-30T19:57:20.029Z,2.38
2023-04-30T19:59:47.671Z,1.90
2023-04-30T20:02:14.884Z,2.28
2023-04-30T20:04:42.267Z,2.22
2023-04-30T20:07:09.051Z,2.38
2023-04-30T20:09:37.621Z,3.25
2023-04-30T20:12:04.683Z,2.15
2023-04-30T20:14:32.182Z,2.90
2023-04-30T20:16:59.234Z,1.98
2023-04-30T20:19:26.678Z,2.20
2023-04-30T20:21:54.503Z,2.78
2023-04-30T20:24:22.681Z,2.22
2023-04-30T20:26:51.640Z,2.30
2023-04-30T20:29:20.553Z,2.30
